Terminal Aerodrome Forecast
Issued by NWS Grand Rapids, MI

Home | Current Version | Previous Version | Text Only | Print | Product List | Glossary On
Versions: 1 2 3 4 5 6 7 8 9 10 11 12 13 14 15 16 17 18 19 20
334
FTUS43 KGRR 231442 AAA
TAFGRR
TAF AMD
KGRR 231442Z 2315/2412 31012KT P6SM FEW020 FEW200
      TEMPO 2315/2318 BKN025
     FM240000 31006KT P6SM SKC=

USA.gov is the U.S. government's official web portal to all federal, state and local government web resources and services.